sensor_id;sensor_type;location;lat;lon;timestamp;temperature;humidity
33271;DHT22;53180;51.344;6.152;2023-02-28T00:01:48;-0.30;78.80
33271;DHT22;53180;51.344;6.152;2023-02-28T00:04:18;-0.40;78.30
33271;DHT22;53180;51.344;6.152;2023-02-28T00:06:46;-0.50;78.90
33271;DHT22;53180;51.344;6.152;2023-02-28T00:09:14;-0.50;79.00
33271;DHT22;53180;51.344;6.152;2023-02-28T00:11:43;-0.50;79.10
33271;DHT22;53180;51.344;6.152;2023-02-28T00:14:11;-0.50;79.20
33271;DHT22;53180;51.344;6.152;2023-02-28T00:16:39;-0.50;79.10
33271;DHT22;53180;51.344;6.152;2023-02-28T00:19:08;-0.50;78.70
33271;DHT22;53180;51.344;6.152;2023-02-28T00:21:37;-0.60;78.80
33271;DHT22;53180;51.344;6.152;2023-02-28T00:24:07;-0.60;78.80
33271;DHT22;53180;51.344;6.152;2023-02-28T00:26:35;-0.60;78.50
33271;DHT22;53180;51.344;6.152;2023-02-28T00:29:03;-0.60;78.80
33271;DHT22;53180;51.344;6.152;2023-02-28T00:31:32;-0.70;79.00
33271;DHT22;53180;51.344;6.152;2023-02-28T00:34:00;-0.70;79.10
33271;DHT22;53180;51.344;6.152;2023-02-28T00:36:28;-0.70;78.70
33271;DHT22;53180;51.344;6.152;2023-02-28T00:38:58;-0.70;78.70
33271;DHT22;53180;51.344;6.152;2023-02-28T00:41:26;-0.80;79.30
33271;DHT22;53180;51.344;6.152;2023-02-28T00:43:55;-0.80;79.00
33271;DHT22;53180;51.344;6.152;2023-02-28T00:46:24;-0.80;79.00
33271;DHT22;53180;51.344;6.152;2023-02-28T00:48:52;-0.80;79.00
33271;DHT22;53180;51.344;6.152;2023-02-28T00:51:23;-0.80;79.00
33271;DHT22;53180;51.344;6.152;2023-02-28T00:53:52;-0.80;79.20
33271;DHT22;53180;51.344;6.152;2023-02-28T00:56:22;-0.90;79.60
33271;DHT22;53180;51.344;6.152;2023-02-28T00:58:50;-0.90;79.60
33271;DHT22;53180;51.344;6.152;2023-02-28T01:01:18;-1.00;79.30
33271;DHT22;53180;51.344;6.152;2023-02-28T01:03:46;-1.00;79.60
33271;DHT22;53180;51.344;6.152;2023-02-28T01:06:15;-1.00;79.80
33271;DHT22;53180;51.344;6.152;2023-02-28T01:08:43;-1.00;79.60
33271;DHT22;53180;51.344;6.152;2023-02-28T01:11:13;-1.00;79.90
33271;DHT22;53180;51.344;6.152;2023-02-28T01:13:45;-1.00;80.10
33271;DHT22;53180;51.344;6.152;2023-02-28T01:16:14;-1.00;79.40
33271;DHT22;53180;51.344;6.152;2023-02-28T01:18:42;-1.10;79.30
33271;DHT22;53180;51.344;6.152;2023-02-28T01:21:12;-1.00;79.50
33271;DHT22;53180;51.344;6.152;2023-02-28T01:23:42;-1.00;79.20
33271;DHT22;53180;51.344;6.152;2023-02-28T01:26:13;-1.10;79.40
33271;DHT22;53180;51.344;6.152;2023-02-28T01:28:44;-1.00;79.20
33271;DHT22;53180;51.344;6.152;2023-02-28T01:31:12;-1.00;79.00
33271;DHT22;53180;51.344;6.152;2023-02-28T01:33:41;-1.10;79.30
33271;DHT22;53180;51.344;6.152;2023-02-28T01:36:11;-1.20;79.70
33271;DHT22;53180;51.344;6.152;2023-02-28T01:38:41;-1.30;80.10
33271;DHT22;53180;51.344;6.152;2023-02-28T01:41:15;-1.40;80.00
33271;DHT22;53180;51.344;6.152;2023-02-28T01:43:59;-1.40;80.30
33271;DHT22;53180;51.344;6.152;2023-02-28T01:46:32;-1.40;80.70
33271;DHT22;53180;51.344;6.152;2023-02-28T01:49:06;-1.40;80.00
33271;DHT22;53180;51.344;6.152;2023-02-28T01:51:41;-1.40;79.90
33271;DHT22;53180;51.344;6.152;2023-02-28T01:54:15;-1.30;80.00
33271;DHT22;53180;51.344;6.152;2023-02-28T01:56:49;-1.30;79.90
33271;DHT22;53180;51.344;6.152;2023-02-28T01:59:26;-1.30;80.30
33271;DHT22;53180;51.344;6.152;2023-02-28T02:01:56;-1.30;80.40
33271;DHT22;53180;51.344;6.152;2023-02-28T02:04:28;-1.30;80.50
33271;DHT22;53180;51.344;6.152;2023-02-28T02:07:02;-1.30;80.50
33271;DHT22;53180;51.344;6.152;2023-02-28T02:09:31;-1.30;80.70
33271;DHT22;53180;51.344;6.152;2023-02-28T02:12:05;-1.40;80.80
33271;DHT22;53180;51.344;6.152;2023-02-28T02:14:54;-1.40;80.70
33271;DHT22;53180;51.344;6.152;2023-02-28T02:17:32;-1.40;80.50
33271;DHT22;53180;51.344;6.152;2023-02-28T02:20:26;-1.50;80.20
33271;DHT22;53180;51.344;6.152;2023-02-28T02:23:24;-1.60;80.90
33271;DHT22;53180;51.344;6.152;2023-02-28T02:26:12;-1.50;80.70
33271;DHT22;53180;51.344;6.152;2023-02-28T02:32:56;-1.50;80.20
33271;DHT22;53180;51.344;6.152;2023-02-28T02:35:36;-1.40;80.20
33271;DHT22;53180;51.344;6.152;2023-02-28T02:38:13;-1.40;80.20
33271;DHT22;53180;51.344;6.152;2023-02-28T02:40:52;-1.40;80.60
33271;DHT22;53180;51.344;6.152;2023-02-28T02:43:29;-1.40;80.70
33271;DHT22;53180;51.344;6.152;2023-02-28T02:46:05;-1.40;80.80
33271;DHT22;53180;51.344;6.152;2023-02-28T02:48:39;-1.30;80.70
33271;DHT22;53180;51.344;6.152;2023-02-28T02:51:13;-1.30;80.60
33271;DHT22;53180;51.344;6.152;2023-02-28T02:53:46;-1.30;80.90
33271;DHT22;53180;51.344;6.152;2023-02-28T02:56:18;-1.30;80.70
33271;DHT22;53180;51.344;6.152;2023-02-28T02:58:49;-1.30;80.90
33271;DHT22;53180;51.344;6.152;2023-02-28T03:01:22;-1.30;80.60
33271;DHT22;53180;51.344;6.152;2023-02-28T03:03:58;-1.30;80.90
33271;DHT22;53180;51.344;6.152;2023-02-28T03:06:29;-1.30;80.90
33271;DHT22;53180;51.344;6.152;2023-02-28T03:08:57;-1.30;80.60
33271;DHT22;53180;51.344;6.152;2023-02-28T03:11:26;-1.30;80.40
33271;DHT22;53180;51.344;6.152;2023-02-28T03:14:09;-1.30;80.80
33271;DHT22;53180;51.344;6.152;2023-02-28T03:17:13;-1.30;80.80
33271;DHT22;53180;51.344;6.152;2023-02-28T03:19:59;-1.20;80.70
33271;DHT22;53180;51.344;6.152;2023-02-28T03:22:51;-1.10;80.60
33271;DHT22;53180;51.344;6.152;2023-02-28T03:25:32;-1.10;80.60
33271;DHT22;53180;51.344;6.152;2023-02-28T03:28:08;-1.10;80.40
33271;DHT22;53180;51.344;6.152;2023-02-28T03:30:42;-1.10;80.40
33271;DHT22;53180;51.344;6.152;2023-02-28T03:33:18;-1.00;80.40
33271;DHT22;53180;51.344;6.152;2023-02-28T03:35:52;-1.00;80.40
33271;DHT22;53180;51.344;6.152;2023-02-28T03:38:28;-1.00;80.40
33271;DHT22;53180;51.344;6.152;2023-02-28T03:41:02;-1.00;80.00
33271;DHT22;53180;51.344;6.152;2023-02-28T03:43:36;-1.10;79.80
33271;DHT22;53180;51.344;6.152;2023-02-28T03:46:09;-1.20;79.70
33271;DHT22;53180;51.344;6.152;2023-02-28T03:48:43;-1.20;79.60
33271;DHT22;53180;51.344;6.152;2023-02-28T03:51:17;-1.30;80.00
33271;DHT22;53180;51.344;6.152;2023-02-28T03:53:53;-1.30;79.80
33271;DHT22;53180;51.344;6.152;2023-02-28T03:56:27;-1.40;80.00
33271;DHT22;53180;51.344;6.152;2023-02-28T03:59:01;-1.50;80.50
33271;DHT22;53180;51.344;6.152;2023-02-28T04:01:34;-1.50;80.50
33271;DHT22;53180;51.344;6.152;2023-02-28T04:04:04;-1.60;80.40
33271;DHT22;53180;51.344;6.152;2023-02-28T04:06:34;-1.70;80.40
33271;DHT22;53180;51.344;6.152;2023-02-28T04:09:05;-1.80;80.80
33271;DHT22;53180;51.344;6.152;2023-02-28T04:11:36;-1.80;80.90
33271;DHT22;53180;51.344;6.152;2023-02-28T04:14:06;-1.80;80.80
33271;DHT22;53180;51.344;6.152;2023-02-28T04:16:37;-1.80;80.50
33271;DHT22;53180;51.344;6.152;2023-02-28T04:19:08;-1.80;80.70
33271;DHT22;53180;51.344;6.152;2023-02-28T04:21:38;-1.80;80.20
33271;DHT22;53180;51.344;6.152;2023-02-28T04:24:10;-1.90;80.40
33271;DHT22;53180;51.344;6.152;2023-02-28T04:26:42;-2.00;80.90
33271;DHT22;53180;51.344;6.152;2023-02-28T04:29:13;-1.90;81.10
33271;DHT22;53180;51.344;6.152;2023-02-28T04:31:45;-1.90;81.20
33271;DHT22;53180;51.344;6.152;2023-02-28T04:34:13;-1.90;81.30
33271;DHT22;53180;51.344;6.152;2023-02-28T04:36:42;-1.80;81.30
33271;DHT22;53180;51.344;6.152;2023-02-28T04:39:14;-1.80;80.80
33271;DHT22;53180;51.344;6.152;2023-02-28T04:41:42;-1.80;81.10
33271;DHT22;53180;51.344;6.152;2023-02-28T04:44:10;-1.80;81.00
33271;DHT22;53180;51.344;6.152;2023-02-28T04:46:39;-1.80;81.20
33271;DHT22;53180;51.344;6.152;2023-02-28T04:49:08;-1.80;81.50
33271;DHT22;53180;51.344;6.152;2023-02-28T04:51:37;-1.80;81.20
33271;DHT22;53180;51.344;6.152;2023-02-28T04:54:06;-1.80;81.30
33271;DHT22;53180;51.344;6.152;2023-02-28T04:56:36;-1.90;80.80
33271;DHT22;53180;51.344;6.152;2023-02-28T04:59:04;-1.90;81.10
33271;DHT22;53180;51.344;6.152;2023-02-28T05:01:33;-1.90;81.60
33271;DHT22;53180;51.344;6.152;2023-02-28T05:04:04;-1.90;81.00
33271;DHT22;53180;51.344;6.152;2023-02-28T05:06:33;-2.00;81.20
33271;DHT22;53180;51.344;6.152;2023-02-28T05:09:02;-2.00;81.20
33271;DHT22;53180;51.344;6.152;2023-02-28T05:11:32;-2.00;81.30
33271;DHT22;53180;51.344;6.152;2023-02-28T05:14:04;-1.90;81.20
33271;DHT22;53180;51.344;6.152;2023-02-28T05:16:33;-1.90;80.80
33271;DHT22;53180;51.344;6.152;2023-02-28T05:19:02;-1.90;80.80
33271;DHT22;53180;51.344;6.152;2023-02-28T05:21:32;-1.90;80.90
33271;DHT22;53180;51.344;6.152;2023-02-28T05:24:03;-1.90;81.20
33271;DHT22;53180;51.344;6.152;2023-02-28T05:26:35;-1.90;81.10
33271;DHT22;53180;51.344;6.152;2023-02-28T05:29:05;-1.90;80.80
33271;DHT22;53180;51.344;6.152;2023-02-28T05:31:34;-1.90;80.80
33271;DHT22;53180;51.344;6.152;2023-02-28T05:34:03;-1.80;80.80
33271;DHT22;53180;51.344;6.152;2023-02-28T05:36:32;-1.90;80.70
33271;DHT22;53180;51.344;6.152;2023-02-28T05:39:00;-2.00;80.30
33271;DHT22;53180;51.344;6.152;2023-02-28T05:41:30;-1.90;80.20
33271;DHT22;53180;51.344;6.152;2023-02-28T05:43:58;-2.00;80.50
33271;DHT22;53180;51.344;6.152;2023-02-28T05:46:28;-2.00;80.50
33271;DHT22;53180;51.344;6.152;2023-02-28T05:48:57;-2.00;80.40
33271;DHT22;53180;51.344;6.152;2023-02-28T05:51:27;-2.00;80.60
33271;DHT22;53180;51.344;6.152;2023-02-28T05:53:59;-2.10;80.50
33271;DHT22;53180;51.344;6.152;2023-02-28T05:56:28;-2.00;80.60
33271;DHT22;53180;51.344;6.152;2023-02-28T05:58:57;-2.00;80.70
33271;DHT22;53180;51.344;6.152;2023-02-28T06:01:32;-2.00;80.80
33271;DHT22;53180;51.344;6.152;2023-02-28T06:04:03;-2.00;80.50
33271;DHT22;53180;51.344;6.152;2023-02-28T06:06:32;-2.00;80.30
33271;DHT22;53180;51.344;6.152;2023-02-28T06:09:03;-2.00;80.50
33271;DHT22;53180;51.344;6.152;2023-02-28T06:11:32;-2.00;80.40
33271;DHT22;53180;51.344;6.152;2023-02-28T06:14:01;-2.00;80.60
33271;DHT22;53180;51.344;6.152;2023-02-28T06:16:33;-2.00;80.50
33271;DHT22;53180;51.344;6.152;2023-02-28T06:19:03;-2.00;80.70
33271;DHT22;53180;51.344;6.152;2023-02-28T06:21:31;-2.00;80.70
33271;DHT22;53180;51.344;6.152;2023-02-28T06:24:00;-2.00;80.90
33271;DHT22;53180;51.344;6.152;2023-02-28T06:26:28;-2.00;80.60
33271;DHT22;53180;51.344;6.152;2023-02-28T06:28:57;-2.00;80.80
33271;DHT22;53180;51.344;6.152;2023-02-28T06:31:27;-2.00;80.90
33271;DHT22;53180;51.344;6.152;2023-02-28T06:33:58;-2.00;80.90
33271;DHT22;53180;51.344;6.152;2023-02-28T06:36:26;-2.00;81.00
33271;DHT22;53180;51.344;6.152;2023-02-28T06:38:54;-2.00;80.80
33271;DHT22;53180;51.344;6.152;2023-02-28T06:41:24;-2.00;80.80
33271;DHT22;53180;51.344;6.152;2023-02-28T06:43:55;-2.00;80.70
33271;DHT22;53180;51.344;6.152;2023-02-28T06:46:23;-2.00;80.70
33271;DHT22;53180;51.344;6.152;2023-02-28T06:48:52;-2.00;80.70
33271;DHT22;53180;51.344;6.152;2023-02-28T06:51:21;-2.00;80.80
33271;DHT22;53180;51.344;6.152;2023-02-28T06:53:51;-1.90;80.70
33271;DHT22;53180;51.344;6.152;2023-02-28T06:56:20;-1.90;80.60
33271;DHT22;53180;51.344;6.152;2023-02-28T06:58:49;-1.80;80.70
33271;DHT22;53180;51.344;6.152;2023-02-28T07:01:19;-1.80;80.50
33271;DHT22;53180;51.344;6.152;2023-02-28T07:03:50;-1.70;80.70
33271;DHT22;53180;51.344;6.152;2023-02-28T07:06:20;-1.50;80.50
33271;DHT22;53180;51.344;6.152;2023-02-28T07:08:51;-1.40;80.00
33271;DHT22;53180;51.344;6.152;2023-02-28T07:11:20;-1.30;79.70
33271;DHT22;53180;51.344;6.152;2023-02-28T07:13:52;-1.30;79.60
33271;DHT22;53180;51.344;6.152;2023-02-28T07:16:21;-1.20;79.30
33271;DHT22;53180;51.344;6.152;2023-02-28T07:18:52;-1.10;79.20
33271;DHT22;53180;51.344;6.152;2023-02-28T07:21:22;-1.00;78.80
33271;DHT22;53180;51.344;6.152;2023-02-28T07:23:51;-0.90;78.60
33271;DHT22;53180;51.344;6.152;2023-02-28T07:26:20;-0.90;78.40
33271;DHT22;53180;51.344;6.152;2023-02-28T07:28:49;-0.80;78.10
33271;DHT22;53180;51.344;6.152;2023-02-28T07:31:17;-0.70;77.90
33271;DHT22;53180;51.344;6.152;2023-02-28T07:33:46;-0.60;77.40
33271;DHT22;53180;51.344;6.152;2023-02-28T07:36:16;-0.50;77.30
33271;DHT22;53180;51.344;6.152;2023-02-28T07:38:48;-0.50;76.60
33271;DHT22;53180;51.344;6.152;2023-02-28T07:41:17;-0.40;76.40
33271;DHT22;53180;51.344;6.152;2023-02-28T07:43:46;-0.30;76.00
33271;DHT22;53180;51.344;6.152;2023-02-28T07:46:16;-0.20;76.00
33271;DHT22;53180;51.344;6.152;2023-02-28T07:48:47;-0.10;75.60
33271;DHT22;53180;51.344;6.152;2023-02-28T07:51:15;0.00;75.60
33271;DHT22;53180;51.344;6.152;2023-02-28T07:53:43;0.00;75.30
33271;DHT22;53180;51.344;6.152;2023-02-28T07:56:13;0.10;75.10
33271;DHT22;53180;51.344;6.152;2023-02-28T07:58:41;0.20;74.60
33271;DHT22;53180;51.344;6.152;2023-02-28T08:01:10;0.30;74.00
33271;DHT22;53180;51.344;6.152;2023-02-28T08:03:39;0.40;73.50
33271;DHT22;53180;51.344;6.152;2023-02-28T08:06:16;0.70;73.40
33271;DHT22;53180;51.344;6.152;2023-02-28T08:08:45;0.80;72.40
33271;DHT22;53180;51.344;6.152;2023-02-28T08:11:15;0.90;71.50
33271;DHT22;53180;51.344;6.152;2023-02-28T08:13:44;1.00;71.20
33271;DHT22;53180;51.344;6.152;2023-02-28T08:16:13;1.20;71.20
33271;DHT22;53180;51.344;6.152;2023-02-28T08:18:48;1.40;70.20
33271;DHT22;53180;51.344;6.152;2023-02-28T08:21:18;1.60;70.00
33271;DHT22;53180;51.344;6.152;2023-02-28T08:23:48;1.70;69.00
33271;DHT22;53180;51.344;6.152;2023-02-28T08:26:19;1.80;68.80
33271;DHT22;53180;51.344;6.152;2023-02-28T08:28:48;1.90;66.70
33271;DHT22;53180;51.344;6.152;2023-02-28T08:31:16;2.10;66.20
33271;DHT22;53180;51.344;6.152;2023-02-28T08:33:46;2.20;66.30
33271;DHT22;53180;51.344;6.152;2023-02-28T08:36:15;2.30;65.90
33271;DHT22;53180;51.344;6.152;2023-02-28T08:38:43;2.50;63.90
33271;DHT22;53180;51.344;6.152;2023-02-28T08:41:13;2.60;63.60
33271;DHT22;53180;51.344;6.152;2023-02-28T08:43:42;2.80;62.90
33271;DHT22;53180;51.344;6.152;2023-02-28T08:46:12;3.00;61.70
33271;DHT22;53180;51.344;6.152;2023-02-28T08:48:41;3.10;61.80
33271;DHT22;53180;51.344;6.152;2023-02-28T08:51:12;3.20;58.70
33271;DHT22;53180;51.344;6.152;2023-02-28T08:53:42;3.30;60.60
33271;DHT22;53180;51.344;6.152;2023-02-28T08:56:13;3.40;59.90
33271;DHT22;53180;51.344;6.152;2023-02-28T08:58:44;3.70;58.70
33271;DHT22;53180;51.344;6.152;2023-02-28T09:01:14;3.70;55.20
33271;DHT22;53180;51.344;6.152;2023-02-28T09:03:44;3.70;55.40
33271;DHT22;53180;51.344;6.152;2023-02-28T09:06:14;3.80;53.60
33271;DHT22;53180;51.344;6.152;2023-02-28T09:08:43;3.90;55.30
33271;DHT22;53180;51.344;6.152;2023-02-28T09:11:13;4.00;53.20
33271;DHT22;53180;51.344;6.152;2023-02-28T09:13:41;4.10;54.50
33271;DHT22;53180;51.344;6.152;2023-02-28T09:16:13;4.20;52.50
33271;DHT22;53180;51.344;6.152;2023-02-28T09:18:43;4.30;52.80
33271;DHT22;53180;51.344;6.152;2023-02-28T09:21:13;4.40;51.80
33271;DHT22;53180;51.344;6.152;2023-02-28T09:23:43;4.40;49.50
33271;DHT22;53180;51.344;6.152;2023-02-28T09:26:14;4.50;48.90
33271;DHT22;53180;51.344;6.152;2023-02-28T09:28:45;4.50;48.70
33271;DHT22;53180;51.344;6.152;2023-02-28T09:31:15;4.60;50.00
33271;DHT22;53180;51.344;6.152;2023-02-28T09:33:48;4.80;50.10
33271;DHT22;53180;51.344;6.152;2023-02-28T09:36:17;4.90;48.50
33271;DHT22;53180;51.344;6.152;2023-02-28T09:38:46;5.10;48.90
33271;DHT22;53180;51.344;6.152;2023-02-28T09:41:18;5.20;47.50
33271;DHT22;53180;51.344;6.152;2023-02-28T09:43:52;5.00;46.50
33271;DHT22;53180;51.344;6.152;2023-02-28T09:46:28;4.90;46.20
33271;DHT22;53180;51.344;6.152;2023-02-28T09:49:02;4.90;46.80
33271;DHT22;53180;51.344;6.152;2023-02-28T09:51:48;5.20;47.20
33271;DHT22;53180;51.344;6.152;2023-02-28T09:54:21;5.30;45.50
33271;DHT22;53180;51.344;6.152;2023-02-28T09:56:51;5.20;44.90
33271;DHT22;53180;51.344;6.152;2023-02-28T09:59:34;5.10;45.00
33271;DHT22;53180;51.344;6.152;2023-02-28T10:02:21;5.10;45.50
33271;DHT22;53180;51.344;6.152;2023-02-28T10:05:09;5.30;45.50
33271;DHT22;53180;51.344;6.152;2023-02-28T10:07:53;5.40;44.50
33271;DHT22;53180;51.344;6.152;2023-02-28T10:10:31;5.30;44.00
33271;DHT22;53180;51.344;6.152;2023-02-28T10:13:05;5.40;45.10
33271;DHT22;53180;51.344;6.152;2023-02-28T10:15:36;5.70;44.90
33271;DHT22;53180;51.344;6.152;2023-02-28T10:18:12;5.60;45.20
33271;DHT22;53180;51.344;6.152;2023-02-28T10:20:43;5.70;44.90
33271;DHT22;53180;51.344;6.152;2023-02-28T10:23:15;5.70;44.40
33271;DHT22;53180;51.344;6.152;2023-02-28T10:25:52;6.00;44.40
33271;DHT22;53180;51.344;6.152;2023-02-28T10:28:24;6.00;43.10
33271;DHT22;53180;51.344;6.152;2023-02-28T10:30:55;5.80;42.80
33271;DHT22;53180;51.344;6.152;2023-02-28T10:33:26;6.00;43.10
33271;DHT22;53180;51.344;6.152;2023-02-28T10:35:57;6.30;42.80
33271;DHT22;53180;51.344;6.152;2023-02-28T10:38:28;6.40;41.90
33271;DHT22;53180;51.344;6.152;2023-02-28T10:41:07;6.70;42.20
33271;DHT22;53180;51.344;6.152;2023-02-28T10:43:38;6.30;40.80
33271;DHT22;53180;51.344;6.152;2023-02-28T10:46:14;6.30;42.20
33271;DHT22;53180;51.344;6.152;2023-02-28T10:49:02;6.20;41.80
33271;DHT22;53180;51.344;6.152;2023-02-28T10:51:36;5.90;41.90
33271;DHT22;53180;51.344;6.152;2023-02-28T10:54:15;5.70;42.20
33271;DHT22;53180;51.344;6.152;2023-02-28T10:56:44;5.70;42.60
33271;DHT22;53180;51.344;6.152;2023-02-28T10:59:31;5.80;43.60
33271;DHT22;53180;51.344;6.152;2023-02-28T11:02:00;6.20;43.50
33271;DHT22;53180;51.344;6.152;2023-02-28T11:04:34;6.10;42.40
33271;DHT22;53180;51.344;6.152;2023-02-28T11:07:16;6.00;43.90
33271;DHT22;53180;51.344;6.152;2023-02-28T11:09:50;6.50;42.30
33271;DHT22;53180;51.344;6.152;2023-02-28T11:12:23;6.40;43.30
33271;DHT22;53180;51.344;6.152;2023-02-28T11:14:55;6.50;43.50
33271;DHT22;53180;51.344;6.152;2023-02-28T11:17:28;6.40;43.70
33271;DHT22;53180;51.344;6.152;2023-02-28T11:19:59;6.40;44.20
33271;DHT22;53180;51.344;6.152;2023-02-28T11:22:32;6.30;43.60
33271;DHT22;53180;51.344;6.152;2023-02-28T11:25:07;6.30;43.40
33271;DHT22;53180;51.344;6.152;2023-02-28T11:27:45;6.50;43.20
33271;DHT22;53180;51.344;6.152;2023-02-28T11:30:28;6.20;43.80
33271;DHT22;53180;51.344;6.152;2023-02-28T11:33:00;6.20;44.70
33271;DHT22;53180;51.344;6.152;2023-02-28T11:35:30;6.70;43.20
33271;DHT22;53180;51.344;6.152;2023-02-28T11:38:04;7.00;42.70
33271;DHT22;53180;51.344;6.152;2023-02-28T11:40:42;7.30;42.00
33271;DHT22;53180;51.344;6.152;2023-02-28T11:43:25;7.20;42.30
33271;DHT22;53180;51.344;6.152;2023-02-28T11:46:10;7.50;42.40
33271;DHT22;53180;51.344;6.152;2023-02-28T11:48:57;7.10;42.00
33271;DHT22;53180;51.344;6.152;2023-02-28T11:51:34;7.00;41.50
33271;DHT22;53180;51.344;6.152;2023-02-28T11:54:15;6.70;42.30
33271;DHT22;53180;51.344;6.152;2023-02-28T11:56:53;6.60;43.30
33271;DHT22;53180;51.344;6.152;2023-02-28T11:59:38;6.50;42.80
33271;DHT22;53180;51.344;6.152;2023-02-28T12:02:23;6.30;43.40
33271;DHT22;53180;51.344;6.152;2023-02-28T12:05:10;6.10;43.60
33271;DHT22;53180;51.344;6.152;2023-02-28T12:07:52;5.90;43.80
33271;DHT22;53180;51.344;6.152;2023-02-28T12:10:30;5.70;44.10
33271;DHT22;53180;51.344;6.152;2023-02-28T12:13:12;5.60;45.20
33271;DHT22;53180;51.344;6.152;2023-02-28T12:16:16;6.00;45.70
33271;DHT22;53180;51.344;6.152;2023-02-28T12:19:01;6.40;44.50
33271;DHT22;53180;51.344;6.152;2023-02-28T12:21:48;6.40;44.10
33271;DHT22;53180;51.344;6.152;2023-02-28T12:24:55;6.30;43.70
33271;DHT22;53180;51.344;6.152;2023-02-28T12:27:34;6.70;44.50
33271;DHT22;53180;51.344;6.152;2023-02-28T12:30:13;6.70;42.90
33271;DHT22;53180;51.344;6.152;2023-02-28T12:32:47;6.70;42.80
33271;DHT22;53180;51.344;6.152;2023-02-28T12:35:21;6.50;43.60
33271;DHT22;53180;51.344;6.152;2023-02-28T12:37:56;6.70;43.30
33271;DHT22;53180;51.344;6.152;2023-02-28T12:40:32;6.70;42.80
33271;DHT22;53180;51.344;6.152;2023-02-28T12:43:08;6.70;44.50
33271;DHT22;53180;51.344;6.152;2023-02-28T12:45:41;6.70;42.90
33271;DHT22;53180;51.344;6.152;2023-02-28T12:48:15;6.80;42.80
33271;DHT22;53180;51.344;6.152;2023-02-28T12:50:48;6.90;42.60
33271;DHT22;53180;51.344;6.152;2023-02-28T12:53:24;6.80;41.90
33271;DHT22;53180;51.344;6.152;2023-02-28T12:56:02;6.70;42.00
33271;DHT22;53180;51.344;6.152;2023-02-28T12:58:39;6.80;42.50
33271;DHT22;53180;51.344;6.152;2023-02-28T13:01:36;6.80;42.60
33271;DHT22;53180;51.344;6.152;2023-02-28T13:04:34;6.80;43.30
33271;DHT22;53180;51.344;6.152;2023-02-28T13:07:42;6.80;43.10
33271;DHT22;53180;51.344;6.152;2023-02-28T13:10:40;6.70;42.90
33271;DHT22;53180;51.344;6.152;2023-02-28T13:13:15;6.60;44.10
33271;DHT22;53180;51.344;6.152;2023-02-28T13:16:03;6.70;43.60
33271;DHT22;53180;51.344;6.152;2023-02-28T13:18:37;6.60;43.30
33271;DHT22;53180;51.344;6.152;2023-02-28T13:21:07;6.50;43.70
33271;DHT22;53180;51.344;6.152;2023-02-28T13:23:40;6.60;42.40
33271;DHT22;53180;51.344;6.152;2023-02-28T13:29:52;6.60;43.80
33271;DHT22;53180;51.344;6.152;2023-02-28T13:32:33;6.70;42.60
33271;DHT22;53180;51.344;6.152;2023-02-28T13:35:43;6.60;42.20
33271;DHT22;53180;51.344;6.152;2023-02-28T13:38:33;6.60;41.90
33271;DHT22;53180;51.344;6.152;2023-02-28T13:44:24;6.70;42.30
33271;DHT22;53180;51.344;6.152;2023-02-28T13:50:18;6.60;43.40
33271;DHT22;53180;51.344;6.152;2023-02-28T13:53:01;6.60;42.60
33271;DHT22;53180;51.344;6.152;2023-02-28T13:55:53;6.60;42.70
33271;DHT22;53180;51.344;6.152;2023-02-28T13:58:37;6.40;43.10
33271;DHT22;53180;51.344;6.152;2023-02-28T14:01:30;6.50;42.90
33271;DHT22;53180;51.344;6.152;2023-02-28T14:07:11;6.40;43.70
33271;DHT22;53180;51.344;6.152;2023-02-28T14:09:49;6.40;43.50
33271;DHT22;53180;51.344;6.152;2023-02-28T14:12:58;6.40;43.20
33271;DHT22;53180;51.344;6.152;2023-02-28T14:15:47;6.40;43.50
33271;DHT22;53180;51.344;6.152;2023-02-28T14:18:32;6.50;43.10
33271;DHT22;53180;51.344;6.152;2023-02-28T14:21:09;6.40;42.80
33271;DHT22;53180;51.344;6.152;2023-02-28T14:23:50;6.40;44.00
33271;DHT22;53180;51.344;6.152;2023-02-28T14:26:56;6.40;43.60
33271;DHT22;53180;51.344;6.152;2023-02-28T14:29:35;6.50;43.70
33271;DHT22;53180;51.344;6.152;2023-02-28T14:32:15;6.40;43.10
33271;DHT22;53180;51.344;6.152;2023-02-28T14:34:55;6.30;43.20
33271;DHT22;53180;51.344;6.152;2023-02-28T14:37:29;6.30;44.20
33271;DHT22;53180;51.344;6.152;2023-02-28T14:39:59;6.40;43.80
33271;DHT22;53180;51.344;6.152;2023-02-28T14:42:32;6.40;44.50
33271;DHT22;53180;51.344;6.152;2023-02-28T14:45:02;6.40;43.90
33271;DHT22;53180;51.344;6.152;2023-02-28T14:47:33;6.40;44.80
33271;DHT22;53180;51.344;6.152;2023-02-28T14:50:04;6.30;44.10
33271;DHT22;53180;51.344;6.152;2023-02-28T14:52:33;6.30;44.40
33271;DHT22;53180;51.344;6.152;2023-02-28T14:55:04;6.30;44.70
33271;DHT22;53180;51.344;6.152;2023-02-28T14:57:40;6.30;44.60
33271;DHT22;53180;51.344;6.152;2023-02-28T15:00:15;6.30;44.40
33271;DHT22;53180;51.344;6.152;2023-02-28T15:02:45;6.20;45.20
33271;DHT22;53180;51.344;6.152;2023-02-28T15:05:24;6.30;45.50
33271;DHT22;53180;51.344;6.152;2023-02-28T15:08:01;6.30;45.30
33271;DHT22;53180;51.344;6.152;2023-02-28T15:10:34;6.40;45.20
33271;DHT22;53180;51.344;6.152;2023-02-28T15:13:05;6.30;44.70
33271;DHT22;53180;51.344;6.152;2023-02-28T15:15:41;6.20;45.10
33271;DHT22;53180;51.344;6.152;2023-02-28T15:18:32;6.20;45.00
33271;DHT22;53180;51.344;6.152;2023-02-28T15:21:08;6.10;44.70
33271;DHT22;53180;51.344;6.152;2023-02-28T15:23:43;6.20;45.10
33271;DHT22;53180;51.344;6.152;2023-02-28T15:26:15;6.20;45.20
33271;DHT22;53180;51.344;6.152;2023-02-28T15:28:44;6.20;45.80
33271;DHT22;53180;51.344;6.152;2023-02-28T15:31:23;6.20;46.40
33271;DHT22;53180;51.344;6.152;2023-02-28T15:34:03;6.20;46.30
33271;DHT22;53180;51.344;6.152;2023-02-28T15:36:34;6.20;47.10
33271;DHT22;53180;51.344;6.152;2023-02-28T15:39:19;6.20;47.60
33271;DHT22;53180;51.344;6.152;2023-02-28T15:41:49;6.00;48.20
33271;DHT22;53180;51.344;6.152;2023-02-28T15:44:24;6.00;48.50
33271;DHT22;53180;51.344;6.152;2023-02-28T15:47:01;6.00;48.60
33271;DHT22;53180;51.344;6.152;2023-02-28T15:49:39;5.90;48.20
33271;DHT22;53180;51.344;6.152;2023-02-28T15:52:17;5.90;48.80
33271;DHT22;53180;51.344;6.152;2023-02-28T15:54:47;5.80;49.50
33271;DHT22;53180;51.344;6.152;2023-02-28T15:57:18;5.70;50.20
33271;DHT22;53180;51.344;6.152;2023-02-28T15:59:51;5.70;49.80
33271;DHT22;53180;51.344;6.152;2023-02-28T16:02:27;5.60;49.90
33271;DHT22;53180;51.344;6.152;2023-02-28T16:05:21;5.60;49.60
33271;DHT22;53180;51.344;6.152;2023-02-28T16:07:57;5.50;50.20
33271;DHT22;53180;51.344;6.152;2023-02-28T16:10:28;5.50;50.80
33271;DHT22;53180;51.344;6.152;2023-02-28T16:12:57;5.50;50.20
33271;DHT22;53180;51.344;6.152;2023-02-28T16:15:27;5.50;50.60
33271;DHT22;53180;51.344;6.152;2023-02-28T16:17:57;5.50;50.40
33271;DHT22;53180;51.344;6.152;2023-02-28T16:20:27;5.50;50.70
33271;DHT22;53180;51.344;6.152;2023-02-28T16:22:58;5.40;50.60
33271;DHT22;53180;51.344;6.152;2023-02-28T16:25:34;5.30;51.40
33271;DHT22;53180;51.344;6.152;2023-02-28T16:28:04;5.30;51.70
33271;DHT22;53180;51.344;6.152;2023-02-28T16:30:36;5.20;51.80
33271;DHT22;53180;51.344;6.152;2023-02-28T16:33:04;5.20;51.80
33271;DHT22;53180;51.344;6.152;2023-02-28T16:35:32;5.20;51.50
33271;DHT22;53180;51.344;6.152;2023-02-28T16:38:02;5.10;51.70
33271;DHT22;53180;51.344;6.152;2023-02-28T16:40:34;5.00;52.50